createdAt,value
2019-06-08T00:00:55.807Z,101120.66
2019-06-08T00:03:28.081Z,101121.37
2019-06-08T00:06:01.617Z,101121.28
2019-06-08T00:08:33.894Z,101124.77
2019-06-08T00:11:06.223Z,101112.63
2019-06-08T00:13:38.858Z,101117.59
2019-06-08T00:16:11.207Z,101114.95
2019-06-08T00:18:43.474Z,101121.25
2019-06-08T00:21:15.768Z,101123.84
2019-06-08T00:23:48.093Z,101117.63
2019-06-08T00:26:22.073Z,101121.37
2019-06-08T00:28:54.463Z,101126.34
2019-06-08T00:31:27.197Z,101131.79
2019-06-08T00:33:59.525Z,101130.88
2019-06-08T00:36:31.876Z,101135.64
2019-06-08T00:39:06.833Z,101141.11
2019-06-08T00:41:39.292Z,101140.70
2019-06-08T00:44:11.546Z,101137.84
2019-06-08T00:46:43.879Z,101134.95
2019-06-08T00:49:16.426Z,101127.92
2019-06-08T00:51:48.956Z,101119.28
2019-06-08T00:54:21.570Z,101122.99
2019-06-08T00:56:54.302Z,101119.83
2019-06-08T00:59:26.596Z,101127.17
2019-06-08T01:01:58.928Z,101122.58
2019-06-08T01:04:31.202Z,101134.59
2019-06-08T01:07:03.606Z,101111.48
2019-06-08T01:09:35.886Z,101089.27
2019-06-08T01:12:08.249Z,101100.33
2019-06-08T01:14:40.558Z,101083.89
2019-06-08T01:17:12.871Z,101072.11
2019-06-08T01:19:45.191Z,101049.08
2019-06-08T01:22:17.717Z,101068.31
2019-06-08T01:24:49.976Z,101055.06
2019-06-08T01:27:22.308Z,101084.66
2019-06-08T01:29:54.594Z,101127.12
2019-06-08T01:32:26.934Z,101138.40
2019-06-08T01:34:59.242Z,101116.55
2019-06-08T01:37:31.623Z,101120.45
2019-06-08T01:40:04.804Z,101114.66
2019-06-08T01:42:37.157Z,101117.38
2019-06-08T01:45:11.452Z,101110.12
2019-06-08T01:47:43.780Z,101103.16
2019-06-08T01:50:16.110Z,101098.91
2019-06-08T01:52:48.865Z,101085.05
2019-06-08T01:55:21.175Z,101095.86
2019-06-08T01:57:53.498Z,101102.88
2019-06-08T02:00:32.574Z,101073.00
2019-06-08T02:03:00.478Z,101089.27
2019-06-08T02:05:32.794Z,101106.29
2019-06-08T02:08:06.469Z,101104.91
2019-06-08T02:10:38.763Z,101112.59
2019-06-08T02:13:11.095Z,101117.69
2019-06-08T02:15:43.447Z,101107.85
2019-06-08T02:18:15.830Z,101113.84
2019-06-08T02:20:49.224Z,101112.05
2019-06-08T02:23:21.675Z,101108.78
2019-06-08T02:25:53.970Z,101112.07
2019-06-08T02:28:27.361Z,101119.64
2019-06-08T02:31:00.073Z,101128.80
2019-06-08T02:33:34.882Z,101133.30
2019-06-08T02:36:08.487Z,101142.08
2019-06-08T02:38:41.113Z,101137.59
2019-06-08T02:41:13.691Z,101130.89
2019-06-08T02:43:46.026Z,101134.95
2019-06-08T02:46:18.321Z,101135.49
2019-06-08T02:49:03.239Z,101128.55
2019-06-08T02:51:24.768Z,101140.41
2019-06-08T02:53:57.675Z,101144.23
2019-06-08T02:56:34.141Z,101146.59
2019-06-08T02:59:07.678Z,101147.28
2019-06-08T03:01:41.508Z,101125.87
2019-06-08T03:04:16.657Z,101141.22
2019-06-08T03:06:51.547Z,101158.04
2019-06-08T03:09:26.173Z,101154.92
2019-06-08T03:11:58.716Z,101149.53
2019-06-08T03:14:33.450Z,101151.92
2019-06-08T03:17:08.117Z,101167.67
2019-06-08T03:19:41.867Z,101155.25
2019-06-08T03:22:14.371Z,101152.42
2019-06-08T03:24:46.738Z,101147.41
2019-06-08T03:27:19.359Z,101151.05
2019-06-08T03:29:51.649Z,101152.77
2019-06-08T03:32:24.377Z,101165.08
2019-06-08T03:34:57.418Z,101161.27
2019-06-08T03:37:30.231Z,101149.84
2019-06-08T03:40:02.740Z,101140.52
2019-06-08T03:42:35.037Z,101134.39
2019-06-08T03:45:07.827Z,101139.59
2019-06-08T03:47:41.839Z,101140.36
2019-06-08T03:50:14.492Z,101137.70
2019-06-08T03:52:47.086Z,101137.05
2019-06-08T03:55:19.824Z,101143.13
2019-06-08T03:57:52.217Z,101151.85
2019-06-08T04:00:24.724Z,101138.13
2019-06-08T04:02:57.005Z,101141.41
2019-06-08T04:05:29.358Z,101137.84
2019-06-08T04:08:01.666Z,101140.29
2019-06-08T04:10:33.993Z,101143.96
2019-06-08T04:13:06.310Z,101142.05
2019-06-08T04:15:40.328Z,101147.60
2019-06-08T04:18:12.774Z,101157.87
2019-06-08T04:20:46.354Z,101139.33
2019-06-08T04:23:19.126Z,101139.85
2019-06-08T04:25:51.476Z,101150.78
2019-06-08T04:28:23.802Z,101148.76
2019-06-08T04:30:56.213Z,101148.96
2019-06-08T04:33:28.531Z,101148.53
2019-06-08T04:36:00.911Z,101154.81
2019-06-08T04:38:33.249Z,101160.59
2019-06-08T04:41:05.646Z,101159.37
2019-06-08T04:43:38.510Z,101157.16
2019-06-08T04:46:11.813Z,101158.17
2019-06-08T04:48:45.223Z,101156.07
2019-06-08T04:51:18.164Z,101151.88
2019-06-08T04:53:50.709Z,101150.72
2019-06-08T04:56:23.099Z,101154.44
2019-06-08T04:58:55.455Z,101174.41
2019-06-08T05:01:27.836Z,101178.05
2019-06-08T05:04:00.438Z,101182.84
2019-06-08T05:06:32.747Z,101175.86
2019-06-08T05:09:07.343Z,101178.03
2019-06-08T05:11:40.997Z,101179.07
2019-06-08T05:14:13.768Z,101185.86
2019-06-08T05:16:47.414Z,101188.89
2019-06-08T05:19:19.917Z,101184.90
2019-06-08T05:21:52.595Z,101183.56
2019-06-08T05:24:24.960Z,101181.53
2019-06-08T05:26:57.279Z,101195.09
2019-06-08T05:29:29.861Z,101204.59
2019-06-08T05:32:02.196Z,101213.59
2019-06-08T05:34:34.797Z,101222.24
2019-06-08T05:37:07.240Z,101216.56
2019-06-08T05:39:39.587Z,101210.81
2019-06-08T05:42:11.891Z,101206.41
2019-06-08T05:44:44.197Z,101209.70
2019-06-08T05:47:16.512Z,101210.80
2019-06-08T05:49:49.956Z,101215.28
2019-06-08T05:52:22.353Z,101212.13
2019-06-08T05:54:54.649Z,101219.63
2019-06-08T05:57:26.991Z,101209.30
2019-06-08T05:59:59.308Z,101225.33
2019-06-08T06:02:31.645Z,101219.72
2019-06-08T06:05:04.935Z,101227.08
2019-06-08T06:07:37.239Z,101227.20
2019-06-08T06:10:09.603Z,101222.52
2019-06-08T06:12:42.975Z,101218.91
2019-06-08T06:15:20.084Z,101220.23
2019-06-08T06:17:53.998Z,101220.48
2019-06-08T06:20:26.326Z,101220.12
2019-06-08T06:22:58.769Z,101224.92
2019-06-08T06:25:31.137Z,101228.56
2019-06-08T06:28:06.249Z,101226.69
2019-06-08T06:30:37.767Z,101232.20
2019-06-08T06:33:11.161Z,101229.63
2019-06-08T06:35:45.753Z,101230.36
2019-06-08T06:38:18.235Z,101232.06
2019-06-08T06:40:50.568Z,101235.75
2019-06-08T06:43:23.406Z,101244.23
2019-06-08T06:45:56.137Z,101226.86
2019-06-08T06:48:28.420Z,101224.34
2019-06-08T06:51:00.761Z,101222.11
2019-06-08T06:53:33.773Z,101224.38
2019-06-08T06:56:06.062Z,101228.72
2019-06-08T06:58:39.491Z,101226.67
2019-06-08T07:01:11.879Z,101235.89
2019-06-08T07:03:44.505Z,101233.56
2019-06-08T07:06:16.847Z,101238.75
2019-06-08T07:08:50.231Z,101233.47
2019-06-08T07:11:22.694Z,101244.86
2019-06-08T07:13:55.213Z,101251.13
2019-06-08T07:16:27.875Z,101260.44
2019-06-08T07:19:00.231Z,101262.27
2019-06-08T07:21:41.313Z,101258.73
2019-06-08T07:24:06.972Z,101272.56
2019-06-08T07:26:39.606Z,101273.22
2019-06-08T07:29:11.920Z,101270.53
2019-06-08T07:31:44.289Z,101282.22
2019-06-08T07:34:17.055Z,101283.14
2019-06-08T07:36:49.747Z,101285.42
2019-06-08T07:39:22.143Z,101292.20
2019-06-08T07:41:55.843Z,101302.58
2019-06-08T07:44:28.363Z,101280.37
2019-06-08T07:47:00.663Z,101304.87
2019-06-08T07:49:32.978Z,101300.41
2019-06-08T07:52:10.290Z,101303.78
2019-06-08T07:54:39.622Z,101303.34
2019-06-08T07:57:12.410Z,101305.18
2019-06-08T07:59:44.854Z,101299.77
2019-06-08T08:02:17.244Z,101309.30
2019-06-08T08:04:50.450Z,101314.94
2019-06-08T08:07:23.240Z,101317.06
2019-06-08T08:09:56.999Z,101316.16
2019-06-08T08:12:29.474Z,101334.11
2019-06-08T08:15:01.778Z,101335.34
2019-06-08T08:17:34.517Z,101341.64
2019-06-08T08:20:07.462Z,101348.87
2019-06-08T08:22:39.741Z,101355.30
2019-06-08T08:25:13.504Z,101353.41
2019-06-08T08:27:47.957Z,101359.08
2019-06-08T08:30:20.424Z,101365.82
2019-06-08T08:32:54.471Z,101368.56
2019-06-08T08:35:28.025Z,101368.44
2019-06-08T08:38:04.101Z,101359.35
2019-06-08T08:40:34.948Z,101370.64
2019-06-08T08:43:09.354Z,101375.70
2019-06-08T08:45:44.131Z,101383.17
2019-06-08T08:48:25.421Z,101388.55
2019-06-08T08:50:51.330Z,101386.90
2019-06-08T08:53:24.670Z,101392.26
2019-06-08T08:56:00.162Z,101388.72
2019-06-08T08:58:32.091Z,101399.00
2019-06-08T09:01:04.403Z,101396.84
2019-06-08T09:03:39.310Z,101407.16
2019-06-08T09:06:10.756Z,101412.31
2019-06-08T09:08:43.088Z,101406.75
2019-06-08T09:11:17.462Z,101409.08
2019-06-08T09:13:49.512Z,101415.19
2019-06-08T09:16:23.573Z,101424.00
2019-06-08T09:18:59.331Z,101429.40
2019-06-08T09:21:30.161Z,101431.22
2019-06-08T09:24:04.042Z,101432.59
2019-06-08T09:26:38.209Z,101436.39
2019-06-08T09:29:11.427Z,101432.39
2019-06-08T09:31:43.928Z,101428.55
2019-06-08T09:34:19.171Z,101445.95
2019-06-08T09:36:50.269Z,101452.12
2019-06-08T09:39:22.561Z,101445.97
2019-06-08T09:41:55.994Z,101455.35
2019-06-08T09:44:31.566Z,101450.57
2019-06-08T09:47:09.454Z,101438.27
2019-06-08T09:49:38.381Z,101443.98
2019-06-08T09:52:10.716Z,101446.23
2019-06-08T09:54:43.995Z,101444.46
2019-06-08T09:57:18.883Z,101446.59
2019-06-08T09:59:51.849Z,101446.47
2019-06-08T10:02:23.816Z,101457.89
2019-06-08T10:04:58.890Z,101478.45
2019-06-08T10:07:31.299Z,101461.82
2019-06-08T10:10:04.814Z,101475.19
2019-06-08T10:12:41.040Z,101480.15
2019-06-08T10:15:12.830Z,101485.09
2019-06-08T10:17:47.456Z,101493.44
2019-06-08T10:20:19.492Z,101499.53
2019-06-08T10:22:51.842Z,101506.84
2019-06-08T10:25:25.332Z,101508.44
2019-06-08T10:28:04.109Z,101514.09
2019-06-08T10:30:31.665Z,101512.86
2019-06-08T10:33:05.783Z,101520.88
2019-06-08T10:35:39.343Z,101523.53
2019-06-08T10:38:12.193Z,101532.74
2019-06-08T10:41:07.085Z,101538.63
2019-06-08T10:43:38.347Z,101535.02
2019-06-08T10:46:16.569Z,101540.45
2019-06-08T10:48:44.033Z,101555.77
2019-06-08T10:51:18.402Z,101554.23
2019-06-08T10:53:53.290Z,101561.91
2019-06-08T10:56:30.851Z,101560.79
2019-06-08T10:59:01.711Z,101558.69
2019-06-08T11:01:33.731Z,101553.94
2019-06-08T11:04:07.130Z,101550.56
2019-06-08T11:06:40.350Z,101554.05
2019-06-08T11:09:15.221Z,101556.67
2019-06-08T11:11:48.087Z,101562.33
2019-06-08T11:14:22.674Z,101562.39
2019-06-08T11:16:54.502Z,101562.72
2019-06-08T11:19:26.908Z,101562.76
2019-06-08T11:22:02.866Z,101563.69
2019-06-08T11:24:33.343Z,101574.52
2019-06-08T11:27:05.789Z,101579.45
2019-06-08T11:29:38.516Z,101579.25
2019-06-08T11:32:12.471Z,101587.20
2019-06-08T11:34:44.885Z,101585.80
2019-06-08T11:37:20.757Z,101589.22
2019-06-08T11:39:51.220Z,101589.11
2019-06-08T11:42:25.570Z,101593.72
2019-06-08T11:44:58.659Z,101588.65
2019-06-08T11:47:32.941Z,101588.70
2019-06-08T11:50:07.155Z,101584.27
2019-06-08T11:52:39.731Z,101586.30
2019-06-08T11:55:13.258Z,101578.41
2019-06-08T11:57:45.813Z,101584.47
2019-06-08T12:00:48.877Z,101589.30
2019-06-08T12:03:21.394Z,101603.13
2019-06-08T12:05:54.842Z,101582.06
2019-06-08T12:08:28.438Z,101586.31
2019-06-08T12:11:02.675Z,101594.22
2019-06-08T12:13:35.520Z,101593.88
2019-06-08T12:16:10.549Z,101590.74
2019-06-08T12:18:42.985Z,101575.16
2019-06-08T12:21:15.574Z,101575.50
2019-06-08T12:23:47.917Z,101583.30
2019-06-08T12:26:20.376Z,101570.59
2019-06-08T12:28:52.666Z,101582.26
2019-06-08T12:31:27.943Z,101582.13
2019-06-08T12:34:00.376Z,101572.98
2019-06-08T12:36:32.680Z,101565.65
2019-06-08T12:39:07.907Z,101583.00
2019-06-08T12:41:40.705Z,101579.25
2019-06-08T12:44:15.112Z,101578.37
2019-06-08T12:46:48.556Z,101586.34
2019-06-08T12:49:21.074Z,101586.20
2019-06-08T12:51:53.378Z,101587.14
2019-06-08T12:54:28.397Z,101591.38
2019-06-08T12:57:01.834Z,101586.91
2019-06-08T12:59:38.578Z,101588.64
2019-06-08T13:02:15.688Z,101590.97
2019-06-08T13:04:45.039Z,101600.16
2019-06-08T13:07:17.299Z,101592.92
2019-06-08T13:09:49.613Z,101600.44
2019-06-08T13:12:21.997Z,101605.64
2019-06-08T13:14:54.405Z,101607.16
2019-06-08T13:17:27.952Z,101613.92
2019-06-08T13:20:00.486Z,101620.03
2019-06-08T13:22:33.128Z,101623.63
2019-06-08T13:25:22.824Z,101608.92
2019-06-08T13:27:41.412Z,101619.72
2019-06-08T13:30:17.417Z,101625.77
2019-06-08T13:32:48.444Z,101633.91
2019-06-08T13:35:22.386Z,101630.02
2019-06-08T13:37:54.893Z,101623.31
2019-06-08T13:40:29.764Z,101623.77
2019-06-08T13:43:02.175Z,101621.95
2019-06-08T13:45:34.455Z,101624.19
2019-06-08T13:48:08.721Z,101627.05
2019-06-08T13:50:40.773Z,101637.78
2019-06-08T13:53:13.130Z,101630.61
2019-06-08T13:55:53.275Z,101631.34
2019-06-08T13:58:26.755Z,101639.95
2019-06-08T14:00:56.748Z,101631.29
2019-06-08T14:03:28.232Z,101640.29
2019-06-08T14:06:00.828Z,101643.69
2019-06-08T14:08:33.337Z,101651.76
2019-06-08T14:11:08.165Z,101639.52
2019-06-08T14:13:39.714Z,101642.40
2019-06-08T14:16:12.099Z,101639.38
2019-06-08T14:18:44.478Z,101639.08
2019-06-08T14:21:21.527Z,101623.33
2019-06-08T14:23:50.919Z,101625.25
2019-06-08T14:26:24.348Z,101633.41
2019-06-08T14:28:58.720Z,101638.34
2019-06-08T14:31:32.183Z,101638.90
2019-06-08T14:34:04.602Z,101638.48
2019-06-08T14:36:40.626Z,101637.29
2019-06-08T14:39:12.944Z,101649.14
2019-06-08T14:41:49.208Z,101647.36
2019-06-08T14:44:21.408Z,101648.38
2019-06-08T14:46:54.775Z,101653.02
2019-06-08T14:49:32.765Z,101654.55
2019-06-08T14:52:01.062Z,101647.48
2019-06-08T14:54:35.273Z,101652.29
2019-06-08T14:57:07.963Z,101646.94
2019-06-08T14:59:40.360Z,101657.70
2019-06-08T15:02:12.648Z,101659.88
2019-06-08T15:04:44.981Z,101687.73
2019-06-08T15:07:20.164Z,101681.53
2019-06-08T15:09:51.593Z,101672.06
2019-06-08T15:12:25.520Z,101674.38
2019-06-08T15:14:58.071Z,101679.23
2019-06-08T15:17:32.184Z,101680.55
2019-06-08T15:20:05.036Z,101685.08
2019-06-08T15:22:39.710Z,101686.59
2019-06-08T15:25:12.246Z,101690.66
2019-06-08T15:27:44.642Z,101687.77
2019-06-08T15:30:17.938Z,101691.50
2019-06-08T15:32:50.307Z,101713.14
2019-06-08T15:35:23.050Z,101698.06
2019-06-08T15:37:55.360Z,101698.41
2019-06-08T15:40:27.951Z,101711.59
2019-06-08T15:43:00.223Z,101717.20
2019-06-08T15:45:34.245Z,101720.58
2019-06-08T15:48:08.137Z,101711.19
2019-06-08T15:50:41.658Z,101712.36
2019-06-08T15:53:14.239Z,101725.00
2019-06-08T15:55:51.319Z,101720.39
2019-06-08T15:58:22.796Z,101718.56
2019-06-08T16:00:55.449Z,101730.36
2019-06-08T16:03:29.285Z,101734.63
2019-06-08T16:06:03.787Z,101746.34
2019-06-08T16:08:37.945Z,101739.00
2019-06-08T16:11:10.082Z,101756.90
2019-06-08T16:13:42.453Z,101761.88
2019-06-08T16:16:14.802Z,101754.69
2019-06-08T16:18:47.122Z,101759.69
2019-06-08T16:21:19.425Z,101749.24
2019-06-08T16:23:51.725Z,101752.33
2019-06-08T16:26:24.013Z,101742.70
2019-06-08T16:28:56.384Z,101741.13
2019-06-08T16:31:28.985Z,101737.12
2019-06-08T16:34:03.401Z,101740.48
2019-06-08T16:36:36.693Z,101733.45
2019-06-08T16:39:09.700Z,101740.23
2019-06-08T16:41:42.033Z,101746.72
2019-06-08T16:44:14.332Z,101745.19
2019-06-08T16:46:46.689Z,101748.41
2019-06-08T16:49:19.059Z,101754.71
2019-06-08T16:51:51.673Z,101748.38
2019-06-08T16:54:23.989Z,101758.70
2019-06-08T16:57:09.595Z,101760.47
2019-06-08T16:59:30.297Z,101765.32
2019-06-08T17:02:02.728Z,101773.70
2019-06-08T17:04:35.147Z,101801.03
2019-06-08T17:07:07.670Z,101832.70
2019-06-08T17:09:40.194Z,101840.05
2019-06-08T17:12:12.782Z,101842.25
2019-06-08T17:14:45.318Z,101801.41
2019-06-08T17:17:17.644Z,101786.23
2019-06-08T17:19:50.318Z,101797.27
2019-06-08T17:22:22.624Z,101789.23
2019-06-08T17:24:54.893Z,101788.98
2019-06-08T17:27:27.399Z,101787.06
2019-06-08T17:29:59.970Z,101783.66
2019-06-08T17:32:33.822Z,101784.25
2019-06-08T17:35:06.638Z,101779.70
2019-06-08T17:37:40.104Z,101794.41
2019-06-08T17:40:13.752Z,101904.92
2019-06-08T17:42:46.016Z,101899.61
2019-06-08T17:45:18.458Z,101895.86
2019-06-08T17:47:50.825Z,101869.43
2019-06-08T17:50:23.168Z,101853.25
2019-06-08T17:52:55.445Z,101826.20
2019-06-08T17:55:27.797Z,101823.41
2019-06-08T17:58:00.359Z,101825.41
2019-06-08T18:00:33.742Z,101821.22
2019-06-08T18:03:08.351Z,101813.66
2019-06-08T18:05:42.810Z,101809.77
2019-06-08T18:08:17.363Z,101811.50
2019-06-08T18:10:49.049Z,101812.73
2019-06-08T18:13:21.394Z,101812.91
2019-06-08T18:15:53.666Z,101815.52
2019-06-08T18:18:28.211Z,101815.81
2019-06-08T18:21:00.306Z,101817.72
2019-06-08T18:23:32.662Z,101821.53
2019-06-08T18:26:07.586Z,101825.45
2019-06-08T18:28:42.252Z,101848.18
2019-06-08T18:31:15.379Z,101865.53
2019-06-08T18:33:50.390Z,101887.22
2019-06-08T18:36:23.918Z,101887.36
2019-06-08T18:38:58.175Z,101867.03
2019-06-08T18:41:31.752Z,101836.56
2019-06-08T18:44:04.117Z,101842.16
2019-06-08T18:46:37.972Z,101835.25
2019-06-08T18:49:10.482Z,101838.11
2019-06-08T18:51:43.898Z,101835.14
2019-06-08T18:54:18.776Z,101833.06
2019-06-08T18:56:51.043Z,101838.59
2019-06-08T18:59:23.714Z,101847.28
2019-06-08T19:01:56.295Z,101847.88
2019-06-08T19:04:30.894Z,101850.72
2019-06-08T19:07:04.786Z,101853.30
2019-06-08T19:09:39.480Z,101860.83
2019-06-08T19:12:12.168Z,101853.77
2019-06-08T19:14:44.439Z,101853.87
2019-06-08T19:17:17.449Z,101858.95
2019-06-08T19:19:52.248Z,101862.61
2019-06-08T19:22:23.993Z,101862.57
2019-06-08T19:24:57.429Z,101861.59
2019-06-08T19:27:29.841Z,101869.06
2019-06-08T19:30:02.122Z,101869.30
2019-06-08T19:32:34.576Z,101868.38
2019-06-08T19:35:07.381Z,101864.15
2019-06-08T19:37:39.737Z,101873.47
2019-06-08T19:40:13.714Z,101869.16
2019-06-08T19:42:56.868Z,101869.53
2019-06-08T19:45:20.063Z,101878.30
2019-06-08T19:47:52.350Z,101880.11
2019-06-08T19:50:28.057Z,101883.52
2019-06-08T19:53:00.097Z,101885.11
2019-06-08T19:55:32.463Z,101893.55
2019-06-08T19:58:04.905Z,101894.12
2019-06-08T20:00:40.062Z,101901.39
2019-06-08T20:03:12.060Z,101906.48
2019-06-08T20:05:45.372Z,101904.29
2019-06-08T20:08:18.282Z,101907.20
2019-06-08T20:10:50.981Z,101913.60
2019-06-08T20:13:23.283Z,101916.06
2019-06-08T20:15:59.600Z,101917.42
2019-06-08T20:18:29.623Z,101922.70
2019-06-08T20:21:01.992Z,101923.55
2019-06-08T20:23:38.065Z,101924.08
2019-06-08T20:26:09.915Z,101932.22
2019-06-08T20:28:43.455Z,101931.72
2019-06-08T20:31:18.034Z,101939.95
2019-06-08T20:33:52.125Z,101939.24
2019-06-08T20:36:24.527Z,101940.86
2019-06-08T20:38:58.319Z,101945.63
2019-06-08T20:41:30.937Z,101945.98
2019-06-08T20:44:03.301Z,101942.29
2019-06-08T20:46:37.617Z,101948.33
2019-06-08T20:49:09.617Z,101949.64
2019-06-08T20:51:42.461Z,101953.67
2019-06-08T20:54:17.190Z,101952.20
2019-06-08T20:56:50.626Z,101953.52
2019-06-08T20:59:29.929Z,101962.03
2019-06-08T21:01:58.901Z,101963.98
2019-06-08T21:04:31.803Z,101965.61
2019-06-08T21:07:04.152Z,101964.30
2019-06-08T21:09:37.058Z,101967.36
2019-06-08T21:12:10.527Z,101965.91
2019-06-08T21:14:42.965Z,101968.70
2019-06-08T21:17:15.328Z,101971.22
2019-06-08T21:19:48.805Z,101974.30
2019-06-08T21:22:21.281Z,101967.44
2019-06-08T21:24:55.101Z,101975.03
2019-06-08T21:27:27.799Z,101978.13
2019-06-08T21:30:08.419Z,101981.61
2019-06-08T21:32:34.388Z,101987.81
2019-06-08T21:35:07.643Z,101988.89
2019-06-08T21:37:40.201Z,101994.12
2019-06-08T21:40:12.587Z,102000.84
2019-06-08T21:42:48.861Z,102006.35
2019-06-08T21:45:19.864Z,102003.22
2019-06-08T21:47:53.317Z,102000.70
2019-06-08T21:50:27.556Z,101998.45
2019-06-08T21:53:00.628Z,101996.14
2019-06-08T21:55:35.221Z,101997.80
2019-06-08T21:58:10.661Z,102013.66
2019-06-08T22:00:43.686Z,102008.91
2019-06-08T22:03:17.833Z,102002.59
2019-06-08T22:05:51.711Z,102006.50
2019-06-08T22:08:24.442Z,102011.56
2019-06-08T22:10:58.996Z,102015.08
2019-06-08T22:13:33.502Z,102014.75
2019-06-08T22:16:08.168Z,102013.04
2019-06-08T22:18:47.500Z,102019.45
2019-06-08T22:21:22.931Z,102016.63
2019-06-08T22:23:57.784Z,102019.16
2019-06-08T22:26:32.694Z,102023.21
2019-06-08T22:29:07.608Z,102028.18
2019-06-08T22:31:42.869Z,102033.25
2019-06-08T22:34:17.458Z,102033.00
2019-06-08T22:36:53.079Z,102033.09
2019-06-08T22:39:28.794Z,102031.90
2019-06-08T22:42:03.747Z,102035.38
2019-06-08T22:44:38.258Z,102028.71
2019-06-08T22:47:11.538Z,102031.94
2019-06-08T22:49:47.631Z,102030.58
2019-06-08T22:52:19.876Z,102042.30
2019-06-08T22:54:56.264Z,102031.00
2019-06-08T22:57:27.947Z,102032.30
2019-06-08T23:00:11.730Z,102039.45
2019-06-08T23:02:44.521Z,102040.80
2019-06-08T23:05:18.788Z,102042.89
2019-06-08T23:07:59.849Z,102042.02
2019-06-08T23:10:31.803Z,102046.45
2019-06-08T23:13:06.234Z,102044.42
2019-06-08T23:15:38.955Z,102048.82
2019-06-08T23:18:12.045Z,102054.56
2019-06-08T23:20:44.516Z,102060.13
2019-06-08T23:23:17.950Z,102052.83
2019-06-08T23:25:55.635Z,102055.41
2019-06-08T23:28:28.313Z,102060.08
2019-06-08T23:31:09.390Z,102058.80
2019-06-08T23:33:34.721Z,102051.13
2019-06-08T23:36:40.886Z,102053.12
2019-06-08T23:38:42.476Z,102060.80
2019-06-08T23:41:14.760Z,102058.95
2019-06-08T23:43:48.032Z,102064.44
2019-06-08T23:46:20.578Z,102062.39
2019-06-08T23:48:52.930Z,102068.90
2019-06-08T23:51:27.384Z,102062.30
2019-06-08T23:54:02.783Z,102069.16
2019-06-08T23:56:39.784Z,102066.17
2019-06-08T23:59:12.758Z,102071.66
